sensor_id;sensor_type;location;lat;lon;timestamp;P1;durP1;ratioP1;P2;durP2;ratioP2
78053;SDS011;67726;45.636;11.752;2024-01-11T00:02:18;59.55;;;31.67;;
78053;SDS011;67726;45.636;11.752;2024-01-11T00:04:44;65.82;;;30.45;;
78053;SDS011;67726;45.636;11.752;2024-01-11T00:07:10;63.42;;;28.25;;
78053;SDS011;67726;45.636;11.752;2024-01-11T00:09:41;60.70;;;28.57;;
78053;SDS011;67726;45.636;11.752;2024-01-11T00:12:07;62.83;;;30.80;;
78053;SDS011;67726;45.636;11.752;2024-01-11T00:14:33;70.80;;;30.45;;
78053;SDS011;67726;45.636;11.752;2024-01-11T00:17:00;67.97;;;32.05;;
78053;SDS011;67726;45.636;11.752;2024-01-11T00:19:26;68.50;;;30.23;;
78053;SDS011;67726;45.636;11.752;2024-01-11T00:21:52;60.37;;;29.23;;
78053;SDS011;67726;45.636;11.752;2024-01-11T00:24:18;62.08;;;30.55;;
78053;SDS011;67726;45.636;11.752;2024-01-11T00:26:44;65.07;;;29.27;;
78053;SDS011;67726;45.636;11.752;2024-01-11T00:29:10;64.70;;;30.05;;
78053;SDS011;67726;45.636;11.752;2024-01-11T00:31:36;57.88;;;28.48;;
78053;SDS011;67726;45.636;11.752;2024-01-11T00:34:03;61.10;;;28.33;;
78053;SDS011;67726;45.636;11.752;2024-01-11T00:36:29;64.78;;;32.05;;
78053;SDS011;67726;45.636;11.752;2024-01-11T00:38:58;61.25;;;28.80;;
78053;SDS011;67726;45.636;11.752;2024-01-11T00:41:24;55.40;;;28.60;;
78053;SDS011;67726;45.636;11.752;2024-01-11T00:43:50;61.83;;;29.92;;
78053;SDS011;67726;45.636;11.752;2024-01-11T00:46:16;58.73;;;28.57;;
78053;SDS011;67726;45.636;11.752;2024-01-11T00:48:42;60.15;;;28.80;;
78053;SDS011;67726;45.636;11.752;2024-01-11T00:51:08;59.80;;;27.45;;
78053;SDS011;67726;45.636;11.752;2024-01-11T00:53:34;56.55;;;27.17;;
78053;SDS011;67726;45.636;11.752;2024-01-11T00:56:00;56.17;;;27.45;;
78053;SDS011;67726;45.636;11.752;2024-01-11T00:58:26;54.80;;;27.80;;
78053;SDS011;67726;45.636;11.752;2024-01-11T01:00:53;55.42;;;25.60;;
78053;SDS011;67726;45.636;11.752;2024-01-11T01:03:22;51.88;;;26.13;;
78053;SDS011;67726;45.636;11.752;2024-01-11T01:05:48;50.70;;;23.58;;
78053;SDS011;67726;45.636;11.752;2024-01-11T01:08:14;47.08;;;23.73;;
78053;SDS011;67726;45.636;11.752;2024-01-11T01:10:40;43.27;;;21.93;;
78053;SDS011;67726;45.636;11.752;2024-01-11T01:13:06;50.10;;;23.77;;
78053;SDS011;67726;45.636;11.752;2024-01-11T01:15:32;48.20;;;21.95;;
78053;SDS011;67726;45.636;11.752;2024-01-11T01:17:58;45.60;;;23.58;;
78053;SDS011;67726;45.636;11.752;2024-01-11T01:20:24;49.58;;;23.35;;
78053;SDS011;67726;45.636;11.752;2024-01-11T01:22:50;49.03;;;23.50;;
78053;SDS011;67726;45.636;11.752;2024-01-11T01:25:16;49.80;;;24.77;;
78053;SDS011;67726;45.636;11.752;2024-01-11T01:27:42;44.60;;;22.73;;
78053;SDS011;67726;45.636;11.752;2024-01-11T01:30:08;47.47;;;22.13;;
78053;SDS011;67726;45.636;11.752;2024-01-11T01:32:34;46.85;;;21.65;;
78053;SDS011;67726;45.636;11.752;2024-01-11T01:35:00;45.80;;;20.80;;
78053;SDS011;67726;45.636;11.752;2024-01-11T01:37:26;47.15;;;22.48;;
78053;SDS011;67726;45.636;11.752;2024-01-11T01:39:52;43.58;;;21.92;;
78053;SDS011;67726;45.636;11.752;2024-01-11T01:42:19;48.08;;;23.42;;
78053;SDS011;67726;45.636;11.752;2024-01-11T01:44:46;51.60;;;24.23;;
78053;SDS011;67726;45.636;11.752;2024-01-11T01:47:12;48.00;;;23.20;;
78053;SDS011;67726;45.636;11.752;2024-01-11T01:49:38;47.90;;;22.75;;
78053;SDS011;67726;45.636;11.752;2024-01-11T01:52:04;51.25;;;22.50;;
78053;SDS011;67726;45.636;11.752;2024-01-11T01:54:31;47.63;;;23.40;;
78053;SDS011;67726;45.636;11.752;2024-01-11T01:56:58;50.63;;;23.00;;
78053;SDS011;67726;45.636;11.752;2024-01-11T01:59:24;44.27;;;23.13;;
78053;SDS011;67726;45.636;11.752;2024-01-11T02:01:51;44.65;;;21.52;;
78053;SDS011;67726;45.636;11.752;2024-01-11T02:04:18;46.17;;;23.38;;
78053;SDS011;67726;45.636;11.752;2024-01-11T02:06:44;44.63;;;22.25;;
78053;SDS011;67726;45.636;11.752;2024-01-11T02:09:12;47.60;;;23.40;;
78053;SDS011;67726;45.636;11.752;2024-01-11T02:11:39;52.13;;;25.93;;
78053;SDS011;67726;45.636;11.752;2024-01-11T02:14:07;54.45;;;24.73;;
78053;SDS011;67726;45.636;11.752;2024-01-11T02:16:33;53.15;;;25.48;;
78053;SDS011;67726;45.636;11.752;2024-01-11T02:18:59;50.72;;;23.85;;
78053;SDS011;67726;45.636;11.752;2024-01-11T02:21:25;55.58;;;24.42;;
78053;SDS011;67726;45.636;11.752;2024-01-11T02:24:05;48.57;;;23.77;;
78053;SDS011;67726;45.636;11.752;2024-01-11T02:26:32;48.67;;;23.42;;
78053;SDS011;67726;45.636;11.752;2024-01-11T02:28:58;48.75;;;23.50;;
78053;SDS011;67726;45.636;11.752;2024-01-11T02:31:24;47.35;;;23.80;;
78053;SDS011;67726;45.636;11.752;2024-01-11T02:33:53;51.92;;;23.33;;
78053;SDS011;67726;45.636;11.752;2024-01-11T02:36:20;43.00;;;21.03;;
78053;SDS011;67726;45.636;11.752;2024-01-11T02:38:46;46.67;;;22.30;;
78053;SDS011;67726;45.636;11.752;2024-01-11T02:41:14;46.90;;;21.30;;
78053;SDS011;67726;45.636;11.752;2024-01-11T02:43:48;50.53;;;21.58;;
78053;SDS011;67726;45.636;11.752;2024-01-11T02:46:17;42.78;;;21.00;;
78053;SDS011;67726;45.636;11.752;2024-01-11T02:48:43;42.73;;;21.20;;
78053;SDS011;67726;45.636;11.752;2024-01-11T02:51:09;50.15;;;22.70;;
78053;SDS011;67726;45.636;11.752;2024-01-11T02:53:35;46.33;;;22.23;;
78053;SDS011;67726;45.636;11.752;2024-01-11T02:56:01;42.70;;;21.10;;
78053;SDS011;67726;45.636;11.752;2024-01-11T02:58:27;46.67;;;22.70;;
78053;SDS011;67726;45.636;11.752;2024-01-11T03:00:53;43.97;;;21.67;;
78053;SDS011;67726;45.636;11.752;2024-01-11T03:03:19;41.22;;;20.13;;
78053;SDS011;67726;45.636;11.752;2024-01-11T03:05:46;44.95;;;22.02;;
78053;SDS011;67726;45.636;11.752;2024-01-11T03:08:12;46.30;;;21.42;;
78053;SDS011;67726;45.636;11.752;2024-01-11T03:10:38;48.65;;;20.85;;
78053;SDS011;67726;45.636;11.752;2024-01-11T03:13:05;40.80;;;19.83;;
78053;SDS011;67726;45.636;11.752;2024-01-11T03:15:31;41.78;;;21.02;;
78053;SDS011;67726;45.636;11.752;2024-01-11T03:17:57;44.17;;;21.48;;
78053;SDS011;67726;45.636;11.752;2024-01-11T03:20:23;48.50;;;22.23;;
78053;SDS011;67726;45.636;11.752;2024-01-11T03:22:52;48.30;;;23.75;;
78053;SDS011;67726;45.636;11.752;2024-01-11T03:25:18;40.60;;;21.47;;
78053;SDS011;67726;45.636;11.752;2024-01-11T03:27:45;45.38;;;21.20;;
78053;SDS011;67726;45.636;11.752;2024-01-11T03:30:11;43.67;;;21.38;;
78053;SDS011;67726;45.636;11.752;2024-01-11T03:32:37;45.92;;;22.15;;
78053;SDS011;67726;45.636;11.752;2024-01-11T03:35:05;50.38;;;22.38;;
78053;SDS011;67726;45.636;11.752;2024-01-11T03:37:31;46.23;;;21.20;;
78053;SDS011;67726;45.636;11.752;2024-01-11T03:39:57;43.60;;;21.35;;
78053;SDS011;67726;45.636;11.752;2024-01-11T03:42:23;46.17;;;20.88;;
78053;SDS011;67726;45.636;11.752;2024-01-11T03:44:49;45.58;;;20.75;;
78053;SDS011;67726;45.636;11.752;2024-01-11T03:47:15;40.88;;;20.23;;
78053;SDS011;67726;45.636;11.752;2024-01-11T03:49:41;46.93;;;21.70;;
78053;SDS011;67726;45.636;11.752;2024-01-11T03:52:07;50.55;;;21.27;;
78053;SDS011;67726;45.636;11.752;2024-01-11T03:54:33;41.88;;;20.02;;
78053;SDS011;67726;45.636;11.752;2024-01-11T03:56:59;39.67;;;19.08;;
78053;SDS011;67726;45.636;11.752;2024-01-11T03:59:25;43.88;;;20.00;;
78053;SDS011;67726;45.636;11.752;2024-01-11T04:01:51;35.67;;;19.83;;
78053;SDS011;67726;45.636;11.752;2024-01-11T04:04:18;40.58;;;20.67;;
78053;SDS011;67726;45.636;11.752;2024-01-11T04:06:44;40.83;;;19.60;;
78053;SDS011;67726;45.636;11.752;2024-01-11T04:09:10;42.17;;;20.20;;
78053;SDS011;67726;45.636;11.752;2024-01-11T04:11:36;45.13;;;19.50;;
78053;SDS011;67726;45.636;11.752;2024-01-11T04:14:02;38.87;;;18.43;;
78053;SDS011;67726;45.636;11.752;2024-01-11T04:16:28;43.13;;;19.63;;
78053;SDS011;67726;45.636;11.752;2024-01-11T04:18:54;40.47;;;19.13;;
78053;SDS011;67726;45.636;11.752;2024-01-11T04:21:21;43.92;;;21.23;;
78053;SDS011;67726;45.636;11.752;2024-01-11T04:23:47;46.42;;;20.13;;
78053;SDS011;67726;45.636;11.752;2024-01-11T04:26:13;37.63;;;19.60;;
78053;SDS011;67726;45.636;11.752;2024-01-11T04:28:40;37.13;;;17.92;;
78053;SDS011;67726;45.636;11.752;2024-01-11T04:31:07;36.55;;;18.25;;
78053;SDS011;67726;45.636;11.752;2024-01-11T04:33:34;41.53;;;18.02;;
78053;SDS011;67726;45.636;11.752;2024-01-11T04:36:00;42.38;;;17.98;;
78053;SDS011;67726;45.636;11.752;2024-01-11T04:38:26;36.63;;;17.33;;
78053;SDS011;67726;45.636;11.752;2024-01-11T04:40:52;35.45;;;17.05;;
78053;SDS011;67726;45.636;11.752;2024-01-11T04:43:18;37.90;;;16.58;;
78053;SDS011;67726;45.636;11.752;2024-01-11T04:45:44;34.20;;;16.95;;
78053;SDS011;67726;45.636;11.752;2024-01-11T04:48:10;43.92;;;17.08;;
78053;SDS011;67726;45.636;11.752;2024-01-11T04:50:36;37.37;;;17.03;;
78053;SDS011;67726;45.636;11.752;2024-01-11T04:53:02;36.17;;;17.35;;
78053;SDS011;67726;45.636;11.752;2024-01-11T04:55:28;35.90;;;15.40;;
78053;SDS011;67726;45.636;11.752;2024-01-11T04:57:54;34.67;;;16.10;;
78053;SDS011;67726;45.636;11.752;2024-01-11T05:00:20;32.33;;;15.17;;
78053;SDS011;67726;45.636;11.752;2024-01-11T05:02:46;36.00;;;15.97;;
78053;SDS011;67726;45.636;11.752;2024-01-11T05:05:12;34.35;;;17.05;;
78053;SDS011;67726;45.636;11.752;2024-01-11T05:07:38;38.08;;;17.23;;
78053;SDS011;67726;45.636;11.752;2024-01-11T05:10:04;39.35;;;17.63;;
78053;SDS011;67726;45.636;11.752;2024-01-11T05:12:30;37.03;;;18.73;;
78053;SDS011;67726;45.636;11.752;2024-01-11T05:14:56;42.60;;;19.50;;
78053;SDS011;67726;45.636;11.752;2024-01-11T05:17:22;34.08;;;18.73;;
78053;SDS011;67726;45.636;11.752;2024-01-11T05:19:48;37.85;;;18.20;;
78053;SDS011;67726;45.636;11.752;2024-01-11T05:22:15;37.67;;;18.55;;
78053;SDS011;67726;45.636;11.752;2024-01-11T05:24:41;34.53;;;17.50;;
78053;SDS011;67726;45.636;11.752;2024-01-11T05:27:07;39.47;;;18.00;;
78053;SDS011;67726;45.636;11.752;2024-01-11T05:29:33;38.63;;;18.30;;
78053;SDS011;67726;45.636;11.752;2024-01-11T05:31:59;40.90;;;19.48;;
78053;SDS011;67726;45.636;11.752;2024-01-11T05:34:25;36.50;;;18.65;;
78053;SDS011;67726;45.636;11.752;2024-01-11T05:36:51;39.92;;;18.77;;
78053;SDS011;67726;45.636;11.752;2024-01-11T05:39:17;44.30;;;20.37;;
78053;SDS011;67726;45.636;11.752;2024-01-11T05:41:43;38.20;;;19.25;;
78053;SDS011;67726;45.636;11.752;2024-01-11T05:44:10;37.63;;;19.50;;
78053;SDS011;67726;45.636;11.752;2024-01-11T05:46:36;47.13;;;20.83;;
78053;SDS011;67726;45.636;11.752;2024-01-11T05:49:02;45.53;;;21.15;;
78053;SDS011;67726;45.636;11.752;2024-01-11T05:51:28;40.10;;;20.00;;
78053;SDS011;67726;45.636;11.752;2024-01-11T05:53:54;40.80;;;19.88;;
78053;SDS011;67726;45.636;11.752;2024-01-11T05:56:20;36.45;;;17.75;;
78053;SDS011;67726;45.636;11.752;2024-01-11T05:58:46;40.78;;;18.30;;
78053;SDS011;67726;45.636;11.752;2024-01-11T06:01:12;36.20;;;18.02;;
78053;SDS011;67726;45.636;11.752;2024-01-11T06:03:38;39.00;;;17.90;;
78053;SDS011;67726;45.636;11.752;2024-01-11T06:06:04;40.42;;;16.63;;
78053;SDS011;67726;45.636;11.752;2024-01-11T06:08:31;34.50;;;17.45;;
78053;SDS011;67726;45.636;11.752;2024-01-11T06:10:57;37.30;;;18.48;;
78053;SDS011;67726;45.636;11.752;2024-01-11T06:13:23;39.88;;;18.52;;
78053;SDS011;67726;45.636;11.752;2024-01-11T06:15:49;41.40;;;18.70;;
78053;SDS011;67726;45.636;11.752;2024-01-11T06:18:15;37.95;;;18.20;;
78053;SDS011;67726;45.636;11.752;2024-01-11T06:20:42;36.05;;;17.45;;
78053;SDS011;67726;45.636;11.752;2024-01-11T06:23:08;36.92;;;18.23;;
78053;SDS011;67726;45.636;11.752;2024-01-11T06:25:34;109.00;;;35.60;;
78053;SDS011;67726;45.636;11.752;2024-01-11T06:28:02;66.93;;;28.70;;
78053;SDS011;67726;45.636;11.752;2024-01-11T06:30:28;54.25;;;23.58;;
78053;SDS011;67726;45.636;11.752;2024-01-11T06:32:54;45.58;;;20.65;;
78053;SDS011;67726;45.636;11.752;2024-01-11T06:35:20;42.80;;;19.55;;
78053;SDS011;67726;45.636;11.752;2024-01-11T06:37:46;38.63;;;19.25;;
78053;SDS011;67726;45.636;11.752;2024-01-11T06:40:12;87.53;;;29.47;;
78053;SDS011;67726;45.636;11.752;2024-01-11T06:42:38;157.63;;;48.97;;
78053;SDS011;67726;45.636;11.752;2024-01-11T06:45:05;101.90;;;33.90;;
78053;SDS011;67726;45.636;11.752;2024-01-11T06:47:31;50.53;;;21.10;;
78053;SDS011;67726;45.636;11.752;2024-01-11T06:49:57;50.30;;;20.50;;
78053;SDS011;67726;45.636;11.752;2024-01-11T06:52:24;50.20;;;20.47;;
78053;SDS011;67726;45.636;11.752;2024-01-11T06:54:50;56.33;;;23.95;;
78053;SDS011;67726;45.636;11.752;2024-01-11T06:57:16;78.88;;;31.08;;
78053;SDS011;67726;45.636;11.752;2024-01-11T06:59:42;65.60;;;27.90;;
78053;SDS011;67726;45.636;11.752;2024-01-11T07:02:11;75.07;;;28.45;;
78053;SDS011;67726;45.636;11.752;2024-01-11T07:04:37;100.00;;;34.57;;
78053;SDS011;67726;45.636;11.752;2024-01-11T07:07:03;122.43;;;42.55;;
78053;SDS011;67726;45.636;11.752;2024-01-11T07:09:29;94.10;;;33.28;;
78053;SDS011;67726;45.636;11.752;2024-01-11T07:11:55;63.03;;;27.83;;
78053;SDS011;67726;45.636;11.752;2024-01-11T07:14:21;64.38;;;25.55;;
78053;SDS011;67726;45.636;11.752;2024-01-11T07:16:47;56.13;;;25.07;;
78053;SDS011;67726;45.636;11.752;2024-01-11T07:19:14;47.83;;;22.67;;
78053;SDS011;67726;45.636;11.752;2024-01-11T07:21:40;43.40;;;21.67;;
78053;SDS011;67726;45.636;11.752;2024-01-11T07:24:06;45.60;;;22.40;;
78053;SDS011;67726;45.636;11.752;2024-01-11T07:26:32;44.17;;;21.75;;
78053;SDS011;67726;45.636;11.752;2024-01-11T07:28:58;44.00;;;20.90;;
78053;SDS011;67726;45.636;11.752;2024-01-11T07:31:24;46.65;;;22.27;;
78053;SDS011;67726;45.636;11.752;2024-01-11T07:33:50;45.28;;;22.52;;
78053;SDS011;67726;45.636;11.752;2024-01-11T07:36:16;47.25;;;23.92;;
78053;SDS011;67726;45.636;11.752;2024-01-11T07:38:43;52.28;;;23.45;;
78053;SDS011;67726;45.636;11.752;2024-01-11T07:41:09;52.73;;;23.67;;
78053;SDS011;67726;45.636;11.752;2024-01-11T07:43:35;57.47;;;24.25;;
78053;SDS011;67726;45.636;11.752;2024-01-11T07:46:02;53.08;;;23.55;;
78053;SDS011;67726;45.636;11.752;2024-01-11T07:48:28;50.50;;;21.55;;
78053;SDS011;67726;45.636;11.752;2024-01-11T07:50:54;43.67;;;20.40;;
78053;SDS011;67726;45.636;11.752;2024-01-11T07:53:21;43.90;;;22.67;;
78053;SDS011;67726;45.636;11.752;2024-01-11T07:55:47;42.83;;;22.60;;
78053;SDS011;67726;45.636;11.752;2024-01-11T07:58:13;51.85;;;26.08;;
78053;SDS011;67726;45.636;11.752;2024-01-11T08:00:40;53.15;;;27.40;;
78053;SDS011;67726;45.636;11.752;2024-01-11T08:03:06;58.00;;;27.30;;
78053;SDS011;67726;45.636;11.752;2024-01-11T08:05:33;53.47;;;27.37;;
78053;SDS011;67726;45.636;11.752;2024-01-11T08:07:59;53.47;;;26.50;;
78053;SDS011;67726;45.636;11.752;2024-01-11T08:10:28;52.55;;;25.77;;
78053;SDS011;67726;45.636;11.752;2024-01-11T08:12:55;49.17;;;26.52;;
78053;SDS011;67726;45.636;11.752;2024-01-11T08:15:21;47.08;;;26.55;;
78053;SDS011;67726;45.636;11.752;2024-01-11T08:17:47;56.00;;;29.70;;
78053;SDS011;67726;45.636;11.752;2024-01-11T08:20:14;54.20;;;28.92;;
78053;SDS011;67726;45.636;11.752;2024-01-11T08:22:43;50.45;;;25.60;;
78053;SDS011;67726;45.636;11.752;2024-01-11T08:25:11;57.10;;;26.95;;
78053;SDS011;67726;45.636;11.752;2024-01-11T08:27:38;45.72;;;23.17;;
78053;SDS011;67726;45.636;11.752;2024-01-11T08:30:04;42.47;;;23.17;;
78053;SDS011;67726;45.636;11.752;2024-01-11T08:32:30;39.05;;;21.15;;
78053;SDS011;67726;45.636;11.752;2024-01-11T08:34:56;35.50;;;19.25;;
78053;SDS011;67726;45.636;11.752;2024-01-11T08:37:22;38.97;;;20.15;;
78053;SDS011;67726;45.636;11.752;2024-01-11T08:39:49;44.50;;;22.40;;
78053;SDS011;67726;45.636;11.752;2024-01-11T08:42:15;38.77;;;18.37;;
78053;SDS011;67726;45.636;11.752;2024-01-11T08:44:41;35.85;;;18.73;;
78053;SDS011;67726;45.636;11.752;2024-01-11T08:47:08;40.75;;;18.90;;
78053;SDS011;67726;45.636;11.752;2024-01-11T08:49:43;36.25;;;18.85;;
78053;SDS011;67726;45.636;11.752;2024-01-11T08:52:09;36.67;;;18.55;;
78053;SDS011;67726;45.636;11.752;2024-01-11T08:54:35;33.53;;;18.27;;
78053;SDS011;67726;45.636;11.752;2024-01-11T08:57:01;41.20;;;19.65;;
78053;SDS011;67726;45.636;11.752;2024-01-11T08:59:28;32.75;;;18.23;;
78053;SDS011;67726;45.636;11.752;2024-01-11T09:01:54;32.38;;;17.63;;
78053;SDS011;67726;45.636;11.752;2024-01-11T09:04:20;32.58;;;18.05;;
78053;SDS011;67726;45.636;11.752;2024-01-11T09:06:46;32.90;;;18.03;;
78053;SDS011;67726;45.636;11.752;2024-01-11T09:09:12;32.10;;;18.23;;
78053;SDS011;67726;45.636;11.752;2024-01-11T09:11:39;28.38;;;15.73;;
78053;SDS011;67726;45.636;11.752;2024-01-11T09:14:08;26.77;;;15.90;;
78053;SDS011;67726;45.636;11.752;2024-01-11T09:16:38;31.30;;;16.33;;
78053;SDS011;67726;45.636;11.752;2024-01-11T09:19:05;32.47;;;16.80;;
78053;SDS011;67726;45.636;11.752;2024-01-11T09:21:31;27.77;;;16.55;;
78053;SDS011;67726;45.636;11.752;2024-01-11T09:23:57;28.50;;;15.75;;
78053;SDS011;67726;45.636;11.752;2024-01-11T09:26:24;30.38;;;16.90;;
78053;SDS011;67726;45.636;11.752;2024-01-11T09:28:50;29.00;;;15.70;;
78053;SDS011;67726;45.636;11.752;2024-01-11T09:31:16;29.40;;;17.00;;
78053;SDS011;67726;45.636;11.752;2024-01-11T09:33:42;28.42;;;15.45;;
78053;SDS011;67726;45.636;11.752;2024-01-11T09:36:10;28.90;;;16.33;;
78053;SDS011;67726;45.636;11.752;2024-01-11T09:38:37;29.77;;;16.88;;
78053;SDS011;67726;45.636;11.752;2024-01-11T09:41:08;31.63;;;17.23;;
78053;SDS011;67726;45.636;11.752;2024-01-11T09:43:34;32.63;;;18.00;;
78053;SDS011;67726;45.636;11.752;2024-01-11T09:46:04;36.53;;;19.73;;
78053;SDS011;67726;45.636;11.752;2024-01-11T09:48:34;36.40;;;19.38;;
78053;SDS011;67726;45.636;11.752;2024-01-11T09:51:03;35.90;;;20.00;;
78053;SDS011;67726;45.636;11.752;2024-01-11T09:53:33;33.30;;;20.05;;
78053;SDS011;67726;45.636;11.752;2024-01-11T09:56:01;33.57;;;18.73;;
78053;SDS011;67726;45.636;11.752;2024-01-11T09:58:27;35.00;;;17.77;;
78053;SDS011;67726;45.636;11.752;2024-01-11T10:00:54;29.40;;;16.33;;
78053;SDS011;67726;45.636;11.752;2024-01-11T10:03:23;27.48;;;15.55;;
78053;SDS011;67726;45.636;11.752;2024-01-11T10:05:50;27.80;;;14.70;;
78053;SDS011;67726;45.636;11.752;2024-01-11T10:08:21;26.07;;;14.27;;
78053;SDS011;67726;45.636;11.752;2024-01-11T10:10:47;24.45;;;13.90;;
78053;SDS011;67726;45.636;11.752;2024-01-11T10:13:14;22.50;;;12.25;;
78053;SDS011;67726;45.636;11.752;2024-01-11T10:15:41;21.98;;;12.95;;
78053;SDS011;67726;45.636;11.752;2024-01-11T10:18:07;22.02;;;12.35;;
78053;SDS011;67726;45.636;11.752;2024-01-11T10:20:33;23.60;;;13.17;;
78053;SDS011;67726;45.636;11.752;2024-01-11T10:22:59;25.98;;;14.20;;
78053;SDS011;67726;45.636;11.752;2024-01-11T10:25:26;26.40;;;14.82;;
78053;SDS011;67726;45.636;11.752;2024-01-11T10:27:52;28.10;;;13.70;;
78053;SDS011;67726;45.636;11.752;2024-01-11T10:30:18;26.58;;;14.70;;
78053;SDS011;67726;45.636;11.752;2024-01-11T10:32:45;23.17;;;14.50;;
78053;SDS011;67726;45.636;11.752;2024-01-11T10:35:12;28.73;;;15.07;;
78053;SDS011;67726;45.636;11.752;2024-01-11T10:37:38;27.58;;;14.82;;
78053;SDS011;67726;45.636;11.752;2024-01-11T10:40:07;26.30;;;14.55;;
78053;SDS011;67726;45.636;11.752;2024-01-11T10:42:44;24.10;;;14.23;;
78053;SDS011;67726;45.636;11.752;2024-01-11T10:45:14;25.87;;;14.93;;
78053;SDS011;67726;45.636;11.752;2024-01-11T10:47:41;27.95;;;14.93;;
78053;SDS011;67726;45.636;11.752;2024-01-11T10:50:11;28.48;;;15.00;;
78053;SDS011;67726;45.636;11.752;2024-01-11T10:52:43;26.08;;;14.07;;
78053;SDS011;67726;45.636;11.752;2024-01-11T10:55:10;25.73;;;14.20;;
78053;SDS011;67726;45.636;11.752;2024-01-11T10:57:37;26.60;;;15.63;;
78053;SDS011;67726;45.636;11.752;2024-01-11T11:00:04;29.70;;;14.98;;
78053;SDS011;67726;45.636;11.752;2024-01-11T11:02:31;28.33;;;14.93;;
78053;SDS011;67726;45.636;11.752;2024-01-11T11:04:59;25.25;;;13.60;;
78053;SDS011;67726;45.636;11.752;2024-01-11T11:07:29;23.45;;;13.95;;
78053;SDS011;67726;45.636;11.752;2024-01-11T11:09:55;29.53;;;14.90;;
78053;SDS011;67726;45.636;11.752;2024-01-11T11:12:22;26.52;;;14.80;;
78053;SDS011;67726;45.636;11.752;2024-01-11T11:14:48;27.63;;;14.85;;
78053;SDS011;67726;45.636;11.752;2024-01-11T11:17:15;25.90;;;15.63;;
78053;SDS011;67726;45.636;11.752;2024-01-11T11:19:42;25.75;;;14.82;;
78053;SDS011;67726;45.636;11.752;2024-01-11T11:22:08;23.77;;;14.93;;
78053;SDS011;67726;45.636;11.752;2024-01-11T11:24:34;23.98;;;14.38;;
78053;SDS011;67726;45.636;11.752;2024-01-11T11:27:00;24.88;;;15.00;;
78053;SDS011;67726;45.636;11.752;2024-01-11T11:29:26;23.50;;;14.38;;
78053;SDS011;67726;45.636;11.752;2024-01-11T11:31:52;25.27;;;14.55;;
78053;SDS011;67726;45.636;11.752;2024-01-11T11:34:19;22.30;;;14.17;;
78053;SDS011;67726;45.636;11.752;2024-01-11T11:36:46;25.55;;;15.02;;
78053;SDS011;67726;45.636;11.752;2024-01-11T11:39:14;28.13;;;15.45;;
78053;SDS011;67726;45.636;11.752;2024-01-11T11:41:41;24.95;;;14.13;;
78053;SDS011;67726;45.636;11.752;2024-01-11T11:44:07;26.70;;;14.57;;
78053;SDS011;67726;45.636;11.752;2024-01-11T11:46:38;23.93;;;14.97;;
78053;SDS011;67726;45.636;11.752;2024-01-11T11:49:04;24.30;;;13.40;;
78053;SDS011;67726;45.636;11.752;2024-01-11T11:51:31;25.65;;;14.43;;
78053;SDS011;67726;45.636;11.752;2024-01-11T11:53:58;25.67;;;13.95;;
78053;SDS011;67726;45.636;11.752;2024-01-11T11:56:24;23.17;;;13.82;;
78053;SDS011;67726;45.636;11.752;2024-01-11T11:58:50;24.57;;;12.90;;
78053;SDS011;67726;45.636;11.752;2024-01-11T12:01:18;23.35;;;14.02;;
78053;SDS011;67726;45.636;11.752;2024-01-11T12:03:44;22.52;;;13.23;;
78053;SDS011;67726;45.636;11.752;2024-01-11T12:06:17;21.55;;;12.85;;
78053;SDS011;67726;45.636;11.752;2024-01-11T12:08:43;26.08;;;14.88;;
78053;SDS011;67726;45.636;11.752;2024-01-11T12:11:12;25.43;;;13.70;;
78053;SDS011;67726;45.636;11.752;2024-01-11T12:13:38;26.02;;;16.30;;
78053;SDS011;67726;45.636;11.752;2024-01-11T12:16:05;26.10;;;14.60;;
78053;SDS011;67726;45.636;11.752;2024-01-11T12:18:31;23.73;;;14.48;;
78053;SDS011;67726;45.636;11.752;2024-01-11T12:20:57;25.88;;;12.98;;
78053;SDS011;67726;45.636;11.752;2024-01-11T12:23:23;23.70;;;13.63;;
78053;SDS011;67726;45.636;11.752;2024-01-11T12:25:49;27.70;;;15.52;;
78053;SDS011;67726;45.636;11.752;2024-01-11T12:28:16;26.23;;;14.70;;
78053;SDS011;67726;45.636;11.752;2024-01-11T12:30:42;26.13;;;14.20;;
78053;SDS011;67726;45.636;11.752;2024-01-11T12:33:08;25.50;;;14.30;;
78053;SDS011;67726;45.636;11.752;2024-01-11T12:35:34;27.03;;;14.37;;
78053;SDS011;67726;45.636;11.752;2024-01-11T12:40:26;24.85;;;13.48;;
78053;SDS011;67726;45.636;11.752;2024-01-11T12:42:53;28.33;;;14.60;;
78053;SDS011;67726;45.636;11.752;2024-01-11T12:45:19;26.23;;;14.15;;
78053;SDS011;67726;45.636;11.752;2024-01-11T12:47:46;28.23;;;14.37;;
78053;SDS011;67726;45.636;11.752;2024-01-11T12:50:12;24.92;;;13.82;;
78053;SDS011;67726;45.636;11.752;2024-01-11T12:52:38;26.52;;;13.57;;
78053;SDS011;67726;45.636;11.752;2024-01-11T12:55:06;27.48;;;14.77;;
78053;SDS011;67726;45.636;11.752;2024-01-11T12:57:33;23.40;;;13.05;;
78053;SDS011;67726;45.636;11.752;2024-01-11T13:00:12;23.40;;;13.83;;
78053;SDS011;67726;45.636;11.752;2024-01-11T13:02:41;21.20;;;12.85;;
78053;SDS011;67726;45.636;11.752;2024-01-11T13:05:11;24.08;;;12.57;;
78053;SDS011;67726;45.636;11.752;2024-01-11T13:07:37;20.30;;;12.50;;
78053;SDS011;67726;45.636;11.752;2024-01-11T13:10:04;20.65;;;11.98;;
78053;SDS011;67726;45.636;11.752;2024-01-11T13:12:30;19.87;;;11.53;;
78053;SDS011;67726;45.636;11.752;2024-01-11T13:14:56;20.27;;;11.52;;
78053;SDS011;67726;45.636;11.752;2024-01-11T13:17:22;19.33;;;10.82;;
78053;SDS011;67726;45.636;11.752;2024-01-11T13:19:48;20.30;;;11.18;;
78053;SDS011;67726;45.636;11.752;2024-01-11T13:22:14;21.70;;;10.70;;
78053;SDS011;67726;45.636;11.752;2024-01-11T13:24:40;15.33;;;8.80;;
78053;SDS011;67726;45.636;11.752;2024-01-11T13:27:06;15.15;;;8.60;;
78053;SDS011;67726;45.636;11.752;2024-01-11T13:29:32;18.98;;;10.20;;
78053;SDS011;67726;45.636;11.752;2024-01-11T13:31:58;16.20;;;9.05;;
78053;SDS011;67726;45.636;11.752;2024-01-11T13:34:24;17.45;;;9.95;;
78053;SDS011;67726;45.636;11.752;2024-01-11T13:36:51;20.23;;;10.63;;
78053;SDS011;67726;45.636;11.752;2024-01-11T13:39:17;20.80;;;11.05;;
78053;SDS011;67726;45.636;11.752;2024-01-11T13:41:45;19.00;;;11.65;;
78053;SDS011;67726;45.636;11.752;2024-01-11T13:44:12;20.40;;;11.63;;
78053;SDS011;67726;45.636;11.752;2024-01-11T13:46:38;21.17;;;13.50;;
78053;SDS011;67726;45.636;11.752;2024-01-11T13:49:04;22.67;;;13.37;;
78053;SDS011;67726;45.636;11.752;2024-01-11T13:51:30;24.88;;;12.40;;
78053;SDS011;67726;45.636;11.752;2024-01-11T13:53:57;22.60;;;13.50;;
78053;SDS011;67726;45.636;11.752;2024-01-11T13:56:25;22.33;;;14.45;;
78053;SDS011;67726;45.636;11.752;2024-01-11T13:58:51;26.00;;;13.65;;
78053;SDS011;67726;45.636;11.752;2024-01-11T14:01:17;19.43;;;12.13;;
78053;SDS011;67726;45.636;11.752;2024-01-11T14:03:43;22.70;;;12.35;;
78053;SDS011;67726;45.636;11.752;2024-01-11T14:06:09;23.25;;;12.75;;
78053;SDS011;67726;45.636;11.752;2024-01-11T14:08:36;20.70;;;11.52;;